Terminal Aerodrome Forecast
Issued by NWS Twin Cities, MN

Home | Current Version | Previous Version | Graphics & Text | Print | Product List | Glossary On
Versions: 1 2 3 4 5 6 7 8 9 10 11 12 13
000
FTUS43 KMPX 022338
TAFSTC
TAF
KSTC 022338Z 0300/0324 16013KT P6SM BKN120 BKN250
     FM030900 16011KT 6SM -TSRA OVC040CB
     FM031200 19007KT 4SM BR OVC015
     FM031600 19006KT 5SM SHRA BR BKN025
     FM032000 19006KT P6SM BKN035=

USA.gov is the U.S. government's official web portal to all federal, state and local government web resources and services.